Time;durP1;ratioP1;P1;durP2;ratioP2;P2;SDS_P1;SDS_P2;PMS_P1;PMS_P2;Temp;Humidity;BMP_temperature;BMP_pressure;BME280_temperature;BME280_humidity;BME280_pressure;Samples;Min_cycle;Max_cycle;Signal;HPM_P1;HPM_P2
2023/04/28 00:01:46;;;;;;;4.80;3.08;;;;;;;17.18;99.44;100675.72;5067880;28;20075;-63
2023/04/28 00:04:13;;;;;;;4.88;2.88;;;;;;;17.33;99.76;100677.72;5076069;28;20505;-63
2023/04/28 00:06:41;;;;;;;8.07;3.30;;;;;;;17.41;97.75;100682.28;5074163;28;20044;-63
2023/04/28 00:09:09;;;;;;;6.35;2.97;;;;;;;17.38;98.70;100680.22;5074451;28;20052;-63
2023/04/28 00:11:37;;;;;;;4.03;2.63;;;;;;;17.37;98.43;100676.63;5066326;28;20515;-62
2023/04/28 00:14:05;;;;;;;5.90;2.88;;;;;;;17.40;97.93;100667.56;5075667;28;20431;-62
2023/04/28 00:16:32;;;;;;;7.50;3.08;;;;;;;17.39;98.21;100677.09;5072654;28;20107;-62
2023/04/28 00:18:59;;;;;;;5.20;2.88;;;;;;;17.23;98.68;100683.81;5058368;28;20064;-62
2023/04/28 00:21:27;;;;;;;5.47;2.90;;;;;;;17.32;99.69;100684.44;5064823;28;20507;-63
2023/04/28 00:23:55;;;;;;;5.20;2.85;;;;;;;17.38;99.64;100674.66;5075545;28;20044;-63
2023/04/28 00:26:22;;;;;;;4.57;2.45;;;;;;;17.34;99.45;100674.56;5071767;28;20067;-62
2023/04/28 00:28:49;;;;;;;5.13;2.70;;;;;;;17.38;100.00;100669.88;5073623;28;20049;-62
2023/04/28 00:31:17;;;;;;;5.53;2.83;;;;;;;17.32;100.00;100670.53;5072236;28;20041;-62
2023/04/28 00:33:44;;;;;;;6.30;3.05;;;;;;;17.21;100.00;100675.81;5071669;28;20372;-63
2023/04/28 00:36:12;;;;;;;5.45;2.63;;;;;;;17.24;100.00;100675.13;5068988;28;20051;-63
2023/04/28 00:38:39;;;;;;;5.00;2.80;;;;;;;17.18;100.00;100681.28;5073511;28;20056;-63
2023/04/28 00:41:09;;;;;;;6.22;3.03;;;;;;;17.13;100.00;100671.25;5070519;28;20049;-63
2023/04/28 00:43:49;;;;;;;7.15;2.75;;;;;;;17.16;100.00;100678.06;5058975;28;20053;-63
2023/04/28 00:46:25;;;;;;;6.43;3.00;;;;;;;17.10;100.00;100660.84;5063212;28;20036;-63
2023/04/28 00:48:53;;;;;;;4.60;2.67;;;;;;;17.07;100.00;100669.88;5075037;28;20435;-62
2023/04/28 00:51:20;;;;;;;5.43;3.35;;;;;;;16.96;100.00;100665.22;5073671;28;20055;-63
2023/04/28 00:53:48;;;;;;;7.30;3.08;;;;;;;16.83;100.00;100667.25;5057545;28;20048;-63
2023/04/28 00:56:15;;;;;;;8.20;3.05;;;;;;;16.99;100.00;100675.63;5054867;28;20048;-63
2023/04/28 00:58:43;;;;;;;6.35;3.10;;;;;;;16.89;100.00;100671.41;5073647;28;20074;-63
2023/04/28 01:01:10;;;;;;;4.30;2.58;;;;;;;16.90;100.00;100673.00;5073162;28;20048;-63
2023/04/28 01:03:39;;;;;;;7.05;3.20;;;;;;;17.13;100.00;100671.25;5075127;28;20063;-64
2023/04/28 01:06:09;;;;;;;6.70;3.08;;;;;;;16.99;100.00;100670.88;5071928;28;20040;-63
2023/04/28 01:08:38;;;;;;;6.45;2.80;;;;;;;16.95;100.00;100671.94;5073295;28;20052;-63
2023/04/28 01:11:13;;;;;;;5.95;2.80;;;;;;;16.98;100.00;100671.22;5066446;28;20056;-63
2023/04/28 01:14:00;;;;;;;4.88;2.42;;;;;;;16.99;100.00;100670.06;5053424;28;20064;-63
2023/04/28 01:16:32;;;;;;;8.30;3.00;;;;;;;16.77;100.00;100665.91;5079904;28;20059;-63
2023/04/28 01:19:00;;;;;;;6.03;2.63;;;;;;;16.91;100.00;100665.47;5058833;28;20048;-63
2023/04/28 01:21:33;;;;;;;4.33;2.30;;;;;;;16.78;100.00;100659.16;5061707;28;20036;-63
2023/04/28 01:24:12;;;;;;;5.63;2.47;;;;;;;16.84;100.00;100655.75;5057577;28;20045;-63
2023/04/28 01:26:40;;;;;;;8.00;2.55;;;;;;;16.92;100.00;100662.34;5069672;28;20052;-63
2023/04/28 01:29:07;;;;;;;4.88;2.38;;;;;;;16.87;100.00;100665.38;5073236;28;20063;-64
2023/04/28 01:31:35;;;;;;;7.05;2.38;;;;;;;16.88;100.00;100666.19;5071744;28;20476;-63
2023/04/28 01:34:02;;;;;;;4.35;2.50;;;;;;;16.90;100.00;100667.44;5070276;28;20397;-63
2023/04/28 01:36:30;;;;;;;4.22;2.28;;;;;;;16.97;100.00;100664.84;5061360;28;20488;-65
2023/04/28 01:38:58;;;;;;;4.85;2.30;;;;;;;16.99;100.00;100668.09;5056424;28;20134;-63
2023/04/28 01:41:25;;;;;;;5.18;2.67;;;;;;;16.95;100.00;100660.78;5067125;28;20052;-63
2023/04/28 01:43:52;;;;;;;4.35;2.42;;;;;;;16.96;100.00;100668.81;5053246;28;20045;-63
2023/04/28 01:46:20;;;;;;;5.03;2.95;;;;;;;16.86;100.00;100658.19;5053954;28;20060;-64
2023/04/28 01:48:47;;;;;;;4.63;2.67;;;;;;;16.93;100.00;100657.59;5055155;28;20057;-62
2023/04/28 01:51:14;;;;;;;4.80;2.70;;;;;;;16.79;100.00;100666.34;5061541;28;20040;-62
2023/04/28 01:53:42;;;;;;;4.78;2.72;;;;;;;16.91;100.00;100665.47;5073235;28;20151;-65
2023/04/28 01:56:10;;;;;;;3.95;2.45;;;;;;;17.10;100.00;100662.81;5035167;28;20041;-62
2023/04/28 01:58:38;;;;;;;6.38;2.67;;;;;;;16.88;100.00;100664.19;5052948;28;20063;-64
2023/04/28 02:01:06;;;;;;;4.50;2.72;;;;;;;16.89;100.00;100669.41;5058919;28;20048;-63
2023/04/28 02:03:33;;;;;;;4.68;2.58;;;;;;;16.85;100.00;100664.94;5073299;28;20045;-65
2023/04/28 02:06:03;;;;;;;3.95;2.40;;;;;;;16.86;100.00;100664.56;5071745;28;20063;-63
2023/04/28 02:08:31;;;;;;;4.03;2.63;;;;;;;16.90;100.00;100661.88;5073264;28;20051;-62
2023/04/28 02:11:00;;;;;;;5.13;2.35;;;;;;;17.41;100.00;100666.41;5054176;28;20052;-63
2023/04/28 02:13:27;;;;;;;6.70;2.63;;;;;;;17.20;100.00;100671.44;5052249;28;20052;-63
2023/04/28 02:15:55;;;;;;;4.22;2.65;;;;;;;17.31;100.00;100671.69;5071428;28;20083;-62
2023/04/28 02:18:22;;;;;;;3.88;2.55;;;;;;;17.13;100.00;100671.25;5072890;28;20071;-62
2023/04/28 02:20:50;;;;;;;5.78;2.35;;;;;;;16.99;100.00;100668.09;5072596;28;20056;-63
2023/04/28 02:23:17;;;;;;;5.97;2.80;;;;;;;17.22;100.00;100663.53;5072587;28;20052;-63
2023/04/28 02:25:45;;;;;;;7.30;2.58;;;;;;;17.26;100.00;100667.19;5068285;28;20061;-62
2023/04/28 02:28:12;;;;;;;3.35;2.10;;;;;;;17.37;100.00;100678.59;5068068;28;20518;-62
2023/04/28 02:30:40;;;;;;;4.72;2.10;;;;;;;17.12;100.00;100680.75;5056082;28;20071;-62
2023/04/28 02:33:07;;;;;;;3.33;2.30;;;;;;;17.09;100.00;100681.47;5072682;28;20052;-63
2023/04/28 02:35:34;;;;;;;4.45;2.50;;;;;;;17.11;100.00;100678.31;5074368;28;20072;-62
2023/04/28 02:38:02;;;;;;;3.30;2.17;;;;;;;17.19;100.00;100674.56;5076677;28;20056;-62
2023/04/28 02:40:29;;;;;;;4.22;2.35;;;;;;;17.11;100.00;100672.75;5058755;28;20397;-62
2023/04/28 02:42:57;;;;;;;3.20;1.90;;;;;;;17.04;100.00;100676.16;5070108;28;20053;-62
2023/04/28 02:45:24;;;;;;;3.35;1.70;;;;;;;16.94;100.00;100675.88;5058990;28;20056;-63
2023/04/28 02:47:51;;;;;;;3.28;1.80;;;;;;;16.94;100.00;100678.66;5075549;28;20053;-62
2023/04/28 02:50:19;;;;;;;4.07;2.00;;;;;;;16.92;100.00;100665.13;5075970;28;20047;-63
2023/04/28 02:52:46;;;;;;;2.80;1.70;;;;;;;17.01;100.00;100667.72;5076661;28;20056;-63
2023/04/28 02:55:22;;;;;;;4.90;1.67;;;;;;;16.79;100.00;100666.34;5076383;28;20052;-62
2023/04/28 02:57:51;;;;;;;1.90;1.30;;;;;;;17.22;100.00;100665.50;5074416;28;20056;-63
2023/04/28 03:00:18;;;;;;;2.78;1.27;;;;;;;17.09;100.00;100655.59;5077282;28;20063;-62
2023/04/28 03:02:48;;;;;;;2.92;1.38;;;;;;;17.12;100.00;100655.69;5057728;28;20053;-62
2023/04/28 03:05:15;;;;;;;2.90;1.73;;;;;;;17.30;100.00;100650.59;5075646;28;20048;-63
2023/04/28 03:07:43;;;;;;;1.98;1.35;;;;;;;17.22;100.00;100652.41;5063566;28;20068;-63
2023/04/28 03:10:10;;;;;;;4.32;1.20;;;;;;;17.29;100.00;100658.16;5055540;28;20057;-63
2023/04/28 03:12:38;;;;;;;1.58;1.20;;;;;;;17.14;100.00;100658.16;5052672;28;20049;-62
2023/04/28 03:15:07;;;;;;;2.17;1.23;;;;;;;16.91;100.00;100657.94;5055570;28;20052;-63
2023/04/28 03:17:38;;;;;;;2.97;1.40;;;;;;;17.21;100.00;100659.13;5075450;28;20052;-62
2023/04/28 03:20:07;;;;;;;2.78;1.30;;;;;;;17.27;100.00;100657.69;5077341;28;20099;-66
2023/04/28 03:22:35;;;;;;;2.65;1.05;;;;;;;17.00;100.00;100657.78;5068751;28;20547;-62
2023/04/28 03:25:04;;;;;;;4.93;1.00;;;;;;;16.86;100.00;100653.44;5042013;28;20048;-66
2023/04/28 03:27:40;;;;;;;1.67;0.90;;;;;;;16.92;100.00;100650.38;5039432;28;20056;-63
2023/04/28 03:30:09;;;;;;;2.00;1.13;;;;;;;16.89;100.00;100657.50;5056913;28;20056;-63
2023/04/28 03:32:36;;;;;;;2.40;1.00;;;;;;;16.80;100.00;100651.28;5073458;28;20060;-63
2023/04/28 03:35:04;;;;;;;1.92;1.00;;;;;;;16.66;100.00;100656.47;5075265;28;20484;-62
2023/04/28 03:37:31;;;;;;;2.78;0.90;;;;;;;16.67;100.00;100664.44;5074051;28;20048;-63
2023/04/28 03:39:59;;;;;;;5.45;0.90;;;;;;;16.59;100.00;100662.63;5058660;28;20590;-62
2023/04/28 03:42:29;;;;;;;1.75;0.82;;;;;;;16.51;100.00;100660.81;5056171;28;20048;-63
2023/04/28 03:45:08;;;;;;;2.88;1.13;;;;;;;16.94;100.00;100653.63;5070855;28;20064;-63
2023/04/28 03:47:35;;;;;;;1.92;0.77;;;;;;;16.82;100.00;100654.53;5072459;28;20052;-62
2023/04/28 03:50:03;;;;;;;2.88;1.00;;;;;;;16.78;100.00;100648.03;5075252;28;20052;-62
2023/04/28 03:52:30;;;;;;;1.70;0.90;;;;;;;16.65;100.00;100660.38;5073615;28;20070;-62
2023/04/28 03:54:57;;;;;;;1.75;0.88;;;;;;;16.80;100.00;100657.66;5074466;28;20053;-62
2023/04/28 03:57:25;;;;;;;1.60;1.02;;;;;;;16.78;100.00;100661.94;5073183;28;20514;-62
2023/04/28 03:59:52;;;;;;;3.53;1.17;;;;;;;16.80;100.00;100657.66;5069466;28;20044;-62
2023/04/28 04:02:19;;;;;;;3.15;1.20;;;;;;;16.80;100.00;100665.19;5071212;28;20052;-63
2023/04/28 04:04:47;;;;;;;2.30;0.93;;;;;;;16.89;100.00;100666.63;5075736;28;20048;-62
2023/04/28 04:07:15;;;;;;;1.92;0.90;;;;;;;16.79;100.00;100656.03;5056870;28;20047;-62
2023/04/28 04:09:42;;;;;;;1.20;0.80;;;;;;;17.21;100.00;100661.91;5075795;28;20063;-62
2023/04/28 04:12:10;;;;;;;3.22;1.00;;;;;;;17.59;99.70;100664.88;5073281;28;20044;-63
2023/04/28 04:14:38;;;;;;;1.88;1.00;;;;;;;17.26;99.61;100664.41;5073297;28;20613;-63
2023/04/28 04:17:05;;;;;;;4.05;0.98;;;;;;;17.10;100.00;100663.63;5072547;28;20051;-63
2023/04/28 04:19:32;;;;;;;1.90;1.00;;;;;;;17.10;100.00;100663.63;5074350;28;20059;-63
2023/04/28 04:22:00;;;;;;;3.00;1.00;;;;;;;16.95;100.00;100661.63;5072764;28;20064;-63
2023/04/28 04:24:29;;;;;;;2.30;1.00;;;;;;;16.82;100.00;100662.88;5072622;28;20040;-64
2023/04/28 04:26:57;;;;;;;1.73;1.00;;;;;;;16.93;100.00;100661.16;5056311;28;20044;-63
2023/04/28 04:29:32;;;;;;;2.15;0.80;;;;;;;16.84;100.00;100674.44;5069624;28;20053;-63
2023/04/28 04:32:04;;;;;;;2.22;0.90;;;;;;;16.85;100.00;100668.53;5071589;28;20045;-62
2023/04/28 04:34:32;;;;;;;1.75;0.98;;;;;;;16.85;100.00;100676.88;5073180;28;20685;-63
2023/04/28 04:37:00;;;;;;;1.48;0.80;;;;;;;16.82;100.00;100672.00;5071754;28;20056;-63
2023/04/28 04:39:28;;;;;;;3.65;1.05;;;;;;;16.93;100.00;100668.72;5072911;28;20049;-63
2023/04/28 04:41:56;;;;;;;2.00;0.80;;;;;;;16.86;100.00;100666.53;5071751;28;20052;-62
2023/04/28 04:44:43;;;;;;;3.80;1.15;;;;;;;16.95;100.00;100669.16;5056140;28;20044;-63
2023/04/28 04:47:19;;;;;;;4.35;1.10;;;;;;;16.85;100.00;100664.94;5071629;28;20063;-63
2023/04/28 04:49:48;;;;;;;2.00;1.10;;;;;;;16.85;100.00;100657.41;5057519;28;20060;-63
2023/04/28 04:52:16;;;;;;;1.13;0.80;;;;;;;17.05;100.00;100677.78;5056628;28;20053;-63
2023/04/28 04:54:45;;;;;;;2.10;0.93;;;;;;;16.80;100.00;100679.91;5073901;28;20411;-63
2023/04/28 04:57:13;;;;;;;1.23;0.80;;;;;;;16.79;100.00;100680.25;5060501;28;20056;-63
2023/04/28 05:00:10;;;;;;;1.92;0.93;;;;;;;16.78;100.00;100679.47;5050200;28;20049;-62
2023/04/28 05:02:38;;;;;;;2.55;0.90;;;;;;;16.92;100.00;100681.81;5071861;28;20063;-63
2023/04/28 05:05:07;;;;;;;3.10;0.90;;;;;;;16.86;100.00;100683.22;5074540;28;20049;-62
2023/04/28 05:07:55;;;;;;;1.92;0.80;;;;;;;16.83;100.00;100689.50;5054709;28;20064;-62
2023/04/28 05:10:23;;;;;;;2.38;1.00;;;;;;;16.88;100.00;100685.69;5072197;28;20052;-64
2023/04/28 05:12:51;;;;;;;2.17;0.80;;;;;;;16.84;100.00;100691.16;5073019;28;20053;-62
2023/04/28 05:15:18;;;;;;;1.70;0.95;;;;;;;16.62;100.00;100688.91;5062414;28;20528;-63
2023/04/28 05:18:09;;;;;;;1.98;0.95;;;;;;;16.93;100.00;100693.75;5073414;28;20415;-63
2023/04/28 05:20:37;;;;;;;2.33;1.05;;;;;;;16.69;100.00;100689.94;5056399;28;20095;-63
2023/04/28 05:23:05;;;;;;;2.75;1.05;;;;;;;16.68;100.00;100693.06;5073360;28;20063;-63
2023/04/28 05:25:33;;;;;;;3.00;1.00;;;;;;;16.68;100.00;100698.63;5055377;28;20053;-63
2023/04/28 05:28:06;;;;;;;5.75;1.00;;;;;;;16.66;100.00;100695.41;5073174;28;20056;-65
2023/04/28 05:30:34;;;;;;;2.95;0.90;;;;;;;16.83;100.00;100695.06;5071507;28;20425;-63
2023/04/28 05:33:02;;;;;;;4.00;1.33;;;;;;;16.85;100.00;100684.41;5054974;28;20059;-63
2023/04/28 05:35:30;;;;;;;1.77;1.02;;;;;;;16.74;100.00;100697.19;5069658;28;20045;-63
2023/04/28 05:37:58;;;;;;;1.75;1.05;;;;;;;16.92;100.00;100701.28;5072362;28;20055;-65
2023/04/28 05:40:26;;;;;;;2.60;1.05;;;;;;;16.94;100.00;100695.38;5074010;28;20044;-63
2023/04/28 05:42:54;;;;;;;1.17;0.88;;;;;;;16.92;100.00;100689.34;5072618;28;20057;-63
2023/04/28 05:45:21;;;;;;;1.92;1.10;;;;;;;16.78;100.00;100700.91;5070462;28;20056;-63
2023/04/28 05:47:49;;;;;;;1.83;1.08;;;;;;;16.77;100.00;100696.50;5072186;28;20061;-64
2023/04/28 05:50:17;;;;;;;2.92;0.93;;;;;;;16.79;100.00;100706.09;5072795;28;20056;-65
2023/04/28 05:52:44;;;;;;;3.03;1.00;;;;;;;16.96;100.00;100706.94;5072568;28;20067;-63
2023/04/28 05:55:12;;;;;;;2.00;1.08;;;;;;;16.82;100.00;100712.94;5072186;28;20053;-64
2023/04/28 05:57:39;;;;;;;3.00;1.58;;;;;;;16.82;100.00;100704.59;5057889;28;20053;-64
2023/04/28 06:00:19;;;;;;;3.83;1.40;;;;;;;16.92;100.00;100703.25;5069341;28;20052;-62
2023/04/28 06:02:46;;;;;;;3.88;1.23;;;;;;;17.00;100.00;100713.44;5072025;28;20415;-64
2023/04/28 06:05:14;;;;;;;3.67;1.10;;;;;;;17.17;100.00;100713.91;5056515;28;20518;-63
2023/04/28 06:07:42;;;;;;;2.38;1.10;;;;;;;17.03;100.00;100710.75;5072083;28;20048;-65
2023/04/28 06:10:10;;;;;;;2.08;1.33;;;;;;;17.17;100.00;100707.53;5076107;28;20055;-63
2023/04/28 06:12:38;;;;;;;5.25;1.52;;;;;;;17.30;98.14;100709.88;5058746;28;20586;-63
2023/04/28 06:15:06;;;;;;;2.90;1.48;;;;;;;17.18;100.00;100717.47;5058090;28;20143;-63
2023/04/28 06:17:33;;;;;;;5.60;1.40;;;;;;;17.21;100.00;100711.22;5075571;28;20060;-63
2023/04/28 06:20:01;;;;;;;2.50;1.48;;;;;;;17.09;100.00;100711.28;5078364;28;20044;-63
2023/04/28 06:22:28;;;;;;;2.95;1.50;;;;;;;17.02;100.00;100714.69;5058836;28;20056;-63
2023/04/28 06:24:55;;;;;;;3.13;1.60;;;;;;;17.02;100.00;100719.44;5077994;28;20056;-64
2023/04/28 06:27:31;;;;;;;4.43;1.48;;;;;;;17.16;100.00;100715.06;5055507;28;20052;-63
2023/04/28 06:29:59;;;;;;;6.15;1.50;;;;;;;17.15;100.00;100718.19;5069974;28;20059;-63
2023/04/28 06:32:26;;;;;;;2.30;1.35;;;;;;;17.05;100.00;100719.53;5075647;28;20056;-63
2023/04/28 06:34:53;;;;;;;2.03;1.40;;;;;;;16.98;100.00;100724.09;5077936;28;20052;-62
2023/04/28 06:37:25;;;;;;;3.15;1.63;;;;;;;17.00;100.00;100721.78;5059401;28;20052;-63
2023/04/28 06:39:53;;;;;;;5.40;1.75;;;;;;;17.13;100.00;100715.78;5077971;28;20048;-63
2023/04/28 06:42:20;;;;;;;5.18;1.60;;;;;;;17.23;100.00;100714.44;5073377;28;20157;-63
2023/04/28 06:44:57;;;;;;;5.60;2.03;;;;;;;17.26;100.00;100722.09;5059140;28;20053;-63
2023/04/28 06:47:26;;;;;;;3.05;1.52;;;;;;;17.34;100.00;100721.09;5057856;28;20052;-62
2023/04/28 06:49:54;;;;;;;3.58;1.80;;;;;;;17.35;99.80;100725.47;5060382;28;20060;-63
2023/04/28 06:52:22;;;;;;;3.50;1.40;;;;;;;17.34;99.49;100721.09;5074204;28;20156;-63
2023/04/28 06:55:06;;;;;;;4.72;2.08;;;;;;;17.35;99.31;100734.66;5077839;28;20057;-63
2023/04/28 06:57:34;;;;;;;3.17;1.48;;;;;;;17.40;99.36;100737.16;5075422;28;20431;-62
2023/04/28 07:00:03;;;;;;;4.13;1.60;;;;;;;17.50;97.65;100739.47;5077132;28;20048;-63
2023/04/28 07:02:30;;;;;;;5.25;2.20;;;;;;;17.35;97.84;100740.22;5059851;28;20060;-63
2023/04/28 07:04:57;;;;;;;3.38;1.75;;;;;;;17.53;98.10;100741.53;5068412;28;20056;-63
2023/04/28 07:07:25;;;;;;;3.22;1.65;;;;;;;17.63;96.11;100749.34;5065754;28;20044;-62
2023/04/28 07:09:52;;;;;;;3.65;1.80;;;;;;;17.54;97.53;100743.13;5065706;28;20053;-62
2023/04/28 07:12:22;;;;;;;5.05;1.60;;;;;;;17.66;96.76;100745.03;5071771;28;20059;-62
2023/04/28 07:14:50;;;;;;;5.13;1.80;;;;;;;17.97;94.83;100740.22;5060092;28;20056;-63
2023/04/28 07:17:17;;;;;;;3.08;1.52;;;;;;;18.09;93.83;100742.09;5067923;28;20049;-63
2023/04/28 07:19:45;;;;;;;5.55;2.13;;;;;;;17.83;95.09;100739.09;5081930;28;20503;-63
2023/04/28 07:22:12;;;;;;;4.18;1.92;;;;;;;17.76;95.71;100744.50;5072199;28;20060;-62
2023/04/28 07:24:39;;;;;;;4.63;2.00;;;;;;;17.70;95.60;100748.69;5058768;28;20041;-62
2023/04/28 07:27:07;;;;;;;4.72;1.75;;;;;;;17.78;93.04;100750.50;5058990;28;20036;-60
2023/04/28 07:29:34;;;;;;;4.32;1.40;;;;;;;18.14;88.71;100752.16;5067691;28;20583;-61
2023/04/28 07:32:03;;;;;;;3.10;1.65;;;;;;;18.22;89.04;100751.16;5060837;28;20068;-58
2023/04/28 07:34:37;;;;;;;6.43;1.60;;;;;;;18.36;88.57;100751.47;5061920;28;20075;-60
2023/04/28 07:37:04;;;;;;;11.70;6.00;;;;;;;18.34;88.38;100754.59;5061264;28;20045;-62
2023/04/28 07:39:38;;;;;;;4.50;2.22;;;;;;;18.32;89.77;100756.16;5057334;28;20057;-61
2023/04/28 07:42:05;;;;;;;3.65;2.10;;;;;;;18.38;90.04;100757.47;5065158;28;20048;-60
2023/04/28 07:44:32;;;;;;;3.78;1.73;;;;;;;18.44;89.25;100756.88;5073031;28;20048;-60
2023/04/28 07:47:00;;;;;;;3.30;1.83;;;;;;;18.64;88.78;100763.25;5062857;28;20045;-61
2023/04/28 07:49:28;;;;;;;6.60;1.70;;;;;;;18.74;87.30;100768.28;5062419;28;20068;-60
2023/04/28 07:51:56;;;;;;;4.70;1.85;;;;;;;18.68;88.04;100767.75;5066029;28;20049;-60
2023/04/28 07:54:24;;;;;;;6.68;1.80;;;;;;;18.74;87.96;100757.13;5069725;28;20036;-60
2023/04/28 07:56:51;;;;;;;5.50;1.90;;;;;;;18.56;87.87;100764.28;5068296;28;20031;-60
2023/04/28 07:59:19;;;;;;;7.13;4.95;;;;;;;18.85;86.88;100763.72;5059587;28;20049;-65
2023/04/28 08:01:46;;;;;;;5.57;1.67;;;;;;;18.69;87.11;100757.41;5065838;28;20044;-64
2023/04/28 08:04:13;;;;;;;4.85;1.60;;;;;;;18.66;87.81;100772.91;5067377;28;20044;-66
2023/04/28 08:06:42;;;;;;;2.50;1.38;;;;;;;18.74;86.62;100763.50;5064269;28;20049;-65
2023/04/28 08:09:09;;;;;;;5.93;1.55;;;;;;;19.01;86.09;100764.44;5065564;28;20048;-64
2023/04/28 08:11:37;;;;;;;2.88;1.40;;;;;;;19.15;85.37;100761.94;5063933;28;20052;-65
2023/04/28 08:14:04;;;;;;;5.40;1.50;;;;;;;19.41;84.50;100764.03;5069021;28;20048;-65
2023/04/28 08:16:33;;;;;;;6.72;1.58;;;;;;;19.58;83.25;100769.16;5069667;28;20044;-65
2023/04/28 08:19:00;;;;;;;2.80;1.50;;;;;;;19.29;83.39;100762.19;5072204;28;20060;-65
2023/04/28 08:21:28;;;;;;;3.33;1.60;;;;;;;19.39;83.65;100767.19;5067360;28;20511;-65
2023/04/28 08:23:55;;;;;;;6.22;1.80;;;;;;;19.63;81.92;100766.03;5067667;28;20056;-66
2023/04/28 08:26:23;;;;;;;2.53;1.45;;;;;;;19.44;80.82;100771.69;5070898;28;20052;-66
2023/04/28 08:28:51;;;;;;;3.85;1.30;;;;;;;19.55;81.09;100767.91;5066514;28;20053;-65
2023/04/28 08:31:18;;;;;;;4.95;1.63;;;;;;;19.24;81.76;100778.44;5058200;28;20067;-66
2023/04/28 08:33:48;;;;;;;3.58;1.40;;;;;;;19.19;82.48;100776.78;5064063;28;20063;-66
2023/04/28 08:36:17;;;;;;;4.30;1.52;;;;;;;19.21;82.62;100776.41;5065811;28;20059;-66
2023/04/28 08:38:44;;;;;;;2.55;1.33;;;;;;;18.97;84.01;100777.50;5055864;28;20041;-66
2023/04/28 08:41:14;;;;;;;4.90;1.58;;;;;;;19.00;83.08;100771.22;5063181;28;20506;-65
2023/04/28 08:43:42;;;;;;;4.78;1.75;;;;;;;19.22;81.37;100776.03;5065080;28;20063;-66
2023/04/28 08:46:09;;;;;;;3.67;2.30;;;;;;;19.11;80.92;100782.59;5068954;28;20056;-66
2023/04/28 08:48:42;;;;;;;2.25;1.15;;;;;;;18.88;82.39;100774.94;5061685;28;20060;-67
2023/04/28 08:51:15;;;;;;;2.95;1.20;;;;;;;18.87;82.08;100778.09;5062597;28;20044;-64
2023/04/28 08:53:44;;;;;;;4.10;1.40;;;;;;;18.83;82.47;100780.00;5071801;28;20052;-64
2023/04/28 08:56:35;;;;;;;3.78;1.30;;;;;;;18.79;82.27;100784.72;5070396;28;20492;-65
2023/04/28 08:59:03;;;;;;;4.47;1.27;;;;;;;18.89;81.07;100781.34;5065012;28;20484;-65
2023/04/28 09:01:31;;;;;;;2.55;1.30;;;;;;;18.71;81.77;100785.72;5066536;28;20401;-65
2023/04/28 09:04:02;;;;;;;6.57;2.03;;;;;;;18.45;83.03;100793.94;5067673;28;20052;-65
2023/04/28 09:06:34;;;;;;;6.20;1.60;;;;;;;18.34;83.91;100792.88;5066641;28;20044;-65
2023/04/28 09:09:18;;;;;;;3.30;1.50;;;;;;;18.51;83.55;100789.69;5064942;28;20048;-65
2023/04/28 09:11:54;;;;;;;3.35;1.45;;;;;;;18.74;82.65;100785.03;5061982;28;20060;-66
2023/04/28 09:14:22;;;;;;;2.08;1.13;;;;;;;18.76;82.59;100791.03;5067533;28;20412;-65
2023/04/28 09:16:50;;;;;;;8.38;1.48;;;;;;;18.70;82.45;100792.50;5063598;28;20049;-65
2023/04/28 09:19:18;;;;;;;3.33;1.30;;;;;;;18.74;81.21;100787.81;5064174;28;20484;-64
2023/04/28 09:21:53;;;;;;;3.85;1.38;;;;;;;18.79;82.14;100791.09;5066400;28;20076;-65
2023/04/28 09:24:32;;;;;;;5.22;1.50;;;;;;;18.88;82.49;100794.50;5055972;28;20052;-65
2023/04/28 09:27:01;;;;;;;7.80;2.17;;;;;;;18.87;81.35;100800.44;5060644;28;20032;-65
2023/04/28 09:29:29;;;;;;;3.95;1.95;;;;;;;18.58;82.36;100801.81;5068585;28;20044;-65
2023/04/28 09:32:12;;;;;;;4.72;1.98;;;;;;;18.25;83.02;100808.97;5047038;28;20053;-65
2023/04/28 09:34:55;;;;;;;4.72;1.58;;;;;;;18.27;83.65;100803.84;5066055;28;20059;-65
2023/04/28 09:37:29;;;;;;;3.65;1.30;;;;;;;18.26;83.00;100808.63;5070400;28;20045;-66
2023/04/28 09:40:05;;;;;;;1.83;1.23;;;;;;;18.30;83.94;100798.38;5072440;28;20822;-65
2023/04/28 09:42:34;;;;;;;2.95;1.40;;;;;;;18.45;82.26;100800.31;5064462;28;20049;-66
2023/04/28 09:45:09;;;;;;;2.58;1.30;;;;;;;18.16;82.90;100798.03;5072881;28;20424;-65
2023/04/28 09:47:41;;;;;;;3.75;1.90;;;;;;;18.47;83.36;100797.97;5067075;28;20068;-64
2023/04/28 09:50:13;;;;;;;4.65;1.90;;;;;;;18.53;82.10;100802.09;5076427;28;20057;-65
2023/04/28 09:52:41;;;;;;;5.40;2.10;;;;;;;18.73;81.94;100800.94;5070545;28;20036;-65
2023/04/28 09:55:10;;;;;;;5.22;2.25;;;;;;;19.05;81.22;100801.63;5068109;28;20052;-65
2023/04/28 09:57:38;;;;;;;4.75;2.53;;;;;;;19.06;79.84;100800.44;5066651;28;20052;-66
2023/04/28 10:00:07;;;;;;;6.28;2.83;;;;;;;19.20;79.21;100795.13;5071518;28;20063;-66
2023/04/28 10:02:37;;;;;;;4.00;2.13;;;;;;;19.16;79.05;100808.22;5068706;28;20502;-63
2023/04/28 10:05:08;;;;;;;6.63;2.60;;;;;;;19.30;78.37;100802.13;5073817;28;20056;-64
2023/04/28 10:07:36;;;;;;;4.97;1.90;;;;;;;19.37;76.72;100805.88;5091645;28;20052;-63
2023/04/28 10:10:04;;;;;;;8.10;6.50;;;;;;;19.28;76.22;100805.28;5063729;28;20055;-63
2023/04/28 10:12:31;;;;;;;4.90;2.55;;;;;;;19.42;75.86;100805.56;5080112;28;20060;-63
2023/04/28 10:14:59;;;;;;;3.70;1.30;;;;;;;19.32;74.12;100803.38;5073781;28;20078;-63
2023/04/28 10:17:28;;;;;;;3.75;1.38;;;;;;;19.02;74.50;100803.16;5077165;28;20052;-63
2023/04/28 10:19:56;;;;;;;3.33;1.40;;;;;;;18.96;75.60;100815.00;5072434;28;20052;-63
2023/04/28 10:23:01;;;;;;;6.50;1.73;;;;;;;18.98;75.18;100804.28;5066565;28;20303;-64
2023/04/28 10:25:34;;;;;;;2.88;1.40;;;;;;;18.97;74.72;100808.22;5075070;28;20060;-64
2023/04/28 10:28:05;;;;;;;4.13;2.70;;;;;;;18.86;73.72;100821.94;5068362;28;20056;-64
2023/04/28 10:30:33;;;;;;;9.88;7.43;;;;;;;18.97;73.83;100811.81;5086423;28;20052;-64
2023/04/28 10:33:05;;;;;;;6.60;3.63;;;;;;;19.09;73.17;100817.25;5067968;28;20768;-64
2023/04/28 10:35:35;;;;;;;5.15;2.50;;;;;;;19.40;72.36;100819.13;5078438;28;20052;-65
2023/04/28 10:38:07;;;;;;;4.43;2.08;;;;;;;19.27;72.46;100817.63;5073358;28;20188;-63
2023/04/28 10:40:37;;;;;;;3.13;1.38;;;;;;;19.50;72.16;100817.69;5073468;28;20059;-63
2023/04/28 10:43:05;;;;;;;5.47;2.65;;;;;;;19.68;71.35;100802.84;5065432;28;20045;-64
2023/04/28 10:45:51;;;;;;;4.28;1.95;;;;;;;19.68;70.99;100813.25;5067033;28;20049;-63
2023/04/28 10:48:45;;;;;;;6.45;2.72;;;;;;;20.30;69.41;100820.28;5063086;28;20385;-63
2023/04/28 10:51:13;;;;;;;;;;;;;;;20.15;67.94;100820.03;5064373;28;20052;-64
2023/04/28 10:53:52;;;;;;;4.53;2.40;;;;;;;19.74;69.49;100822.91;5073869;28;19925;-63
2023/04/28 10:56:24;;;;;;;4.97;2.00;;;;;;;19.82;70.16;100817.06;5074105;28;20499;-63
2023/04/28 10:58:53;;;;;;;9.13;4.22;;;;;;;20.00;69.98;100818.19;5073421;28;20052;-65
2023/04/28 11:01:20;;;;;;;5.85;2.25;;;;;;;20.16;69.83;100818.06;5067406;28;20045;-64
2023/04/28 11:03:50;;;;;;;5.53;2.20;;;;;;;20.36;68.15;100816.00;5062757;28;20080;-65
2023/04/28 11:06:24;;;;;;;5.37;3.63;;;;;;;20.28;68.75;100819.84;5068131;28;20053;-64
2023/04/28 11:08:55;;;;;;;4.88;1.70;;;;;;;20.00;69.96;100820.16;5060188;28;20470;-64
2023/04/28 11:11:24;;;;;;;;;;;;;;;19.87;69.15;100818.75;5068971;28;20056;-63
2023/04/28 11:13:53;;;;;;;4.68;1.88;;;;;;;19.88;70.83;100815.59;5064908;28;19931;-64
2023/04/28 11:16:23;;;;;;;3.73;1.57;;;;;;;20.15;70.44;100814.44;5067369;28;20056;-64
2023/04/28 11:18:53;;;;;;;6.68;1.60;;;;;;;20.41;69.08;100818.47;5072668;28;20406;-63
2023/04/28 11:21:23;;;;;;;3.35;1.42;;;;;;;20.30;69.82;100806.28;5080811;28;20049;-63
2023/04/28 11:23:50;;;;;;;6.05;1.83;;;;;;;20.36;69.25;100807.59;5066504;28;20052;-63
2023/04/28 11:26:18;;;;;;;3.05;1.52;;;;;;;20.26;68.86;100802.66;5073024;28;20052;-63
2023/04/28 11:28:54;;;;;;;2.97;1.40;;;;;;;20.65;68.81;100806.81;5073251;28;20056;-65
2023/04/28 11:31:23;;;;;;;5.93;1.27;;;;;;;20.75;67.79;100792.16;5049809;28;20056;-65
2023/04/28 11:33:54;;;;;;;2.88;1.27;;;;;;;20.43;67.41;100802.94;5059924;28;20056;-66